sensor_id;sensor_type;location;lat;lon;timestamp;pressure;altitude;pressure_sealevel;temperature;humidity
32456;BME280;18912;43.270;27.942;2023-02-20T00:00:53;97882.28;;;15.89;50.17
32456;BME280;18912;43.270;27.942;2023-02-20T00:03:19;97879.72;;;16.16;49.98
32456;BME280;18912;43.270;27.942;2023-02-20T00:05:45;97865.94;;;16.06;50.25
32456;BME280;18912;43.270;27.942;2023-02-20T00:08:11;97867.25;;;15.87;50.76
32456;BME280;18912;43.270;27.942;2023-02-20T00:10:36;97873.19;;;15.84;50.92
32456;BME280;18912;43.270;27.942;2023-02-20T00:13:02;97875.59;;;15.97;50.49
32456;BME280;18912;43.270;27.942;2023-02-20T00:15:27;97862.38;;;15.89;50.57
32456;BME280;18912;43.270;27.942;2023-02-20T00:17:52;97872.09;;;15.68;50.32
32456;BME280;18912;43.270;27.942;2023-02-20T00:20:22;97870.38;;;15.79;50.96
32456;BME280;18912;43.270;27.942;2023-02-20T00:22:49;97872.84;;;15.80;50.84
32456;BME280;18912;43.270;27.942;2023-02-20T00:25:15;97869.72;;;15.88;50.66
32456;BME280;18912;43.270;27.942;2023-02-20T00:27:42;97864.88;;;15.46;51.16
32456;BME280;18912;43.270;27.942;2023-02-20T00:30:18;97867.19;;;15.54;51.29
32456;BME280;18912;43.270;27.942;2023-02-20T00:32:48;97868.41;;;15.74;50.63
32456;BME280;18912;43.270;27.942;2023-02-20T00:35:15;97875.13;;;15.55;50.88
32456;BME280;18912;43.270;27.942;2023-02-20T00:37:41;97856.78;;;15.51;50.61
32456;BME280;18912;43.270;27.942;2023-02-20T00:40:07;97871.19;;;15.63;50.44
32456;BME280;18912;43.270;27.942;2023-02-20T00:42:33;97874.31;;;15.71;50.45
32456;BME280;18912;43.270;27.942;2023-02-20T00:44:59;97886.91;;;15.89;49.98
32456;BME280;18912;43.270;27.942;2023-02-20T00:47:24;97872.78;;;15.92;49.58
32456;BME280;18912;43.270;27.942;2023-02-20T00:49:50;97871.53;;;15.83;49.64
32456;BME280;18912;43.270;27.942;2023-02-20T00:52:16;97876.97;;;16.00;49.27
32456;BME280;18912;43.270;27.942;2023-02-20T00:54:41;97884.09;;;15.84;49.72
32456;BME280;18912;43.270;27.942;2023-02-20T00:57:06;97879.34;;;15.63;49.96
32456;BME280;18912;43.270;27.942;2023-02-20T00:59:32;97884.66;;;15.41;50.17
32456;BME280;18912;43.270;27.942;2023-02-20T01:01:57;97882.75;;;15.86;49.43
32456;BME280;18912;43.270;27.942;2023-02-20T01:04:23;97895.69;;;15.35;49.97
32456;BME280;18912;43.270;27.942;2023-02-20T01:06:49;97893.75;;;15.47;49.78
32456;BME280;18912;43.270;27.942;2023-02-20T01:09:14;97879.78;;;15.88;48.89
32456;BME280;18912;43.270;27.942;2023-02-20T01:11:43;97890.97;;;15.58;49.37
32456;BME280;18912;43.270;27.942;2023-02-20T01:14:10;97894.00;;;15.90;48.69
32456;BME280;18912;43.270;27.942;2023-02-20T01:16:35;97894.25;;;15.44;49.64
32456;BME280;18912;43.270;27.942;2023-02-20T01:19:01;97905.78;;;15.23;50.26
32456;BME280;18912;43.270;27.942;2023-02-20T01:21:26;97909.13;;;15.53;49.37
32456;BME280;18912;43.270;27.942;2023-02-20T01:23:51;97911.03;;;15.41;49.66
32456;BME280;18912;43.270;27.942;2023-02-20T01:26:17;97907.53;;;15.68;48.90
32456;BME280;18912;43.270;27.942;2023-02-20T01:28:44;97910.63;;;15.21;49.78
32456;BME280;18912;43.270;27.942;2023-02-20T01:31:09;97909.75;;;15.32;49.98
32456;BME280;18912;43.270;27.942;2023-02-20T01:33:35;97912.81;;;15.35;49.58
32456;BME280;18912;43.270;27.942;2023-02-20T01:36:00;97901.03;;;15.58;49.18
32456;BME280;18912;43.270;27.942;2023-02-20T01:38:26;97896.94;;;15.55;49.03
32456;BME280;18912;43.270;27.942;2023-02-20T01:40:51;97886.34;;;15.31;49.49
32456;BME280;18912;43.270;27.942;2023-02-20T01:43:17;97893.22;;;15.22;50.05
32456;BME280;18912;43.270;27.942;2023-02-20T01:45:43;97892.19;;;15.11;50.24
32456;BME280;18912;43.270;27.942;2023-02-20T01:48:26;97890.19;;;15.07;50.49
32456;BME280;18912;43.270;27.942;2023-02-20T01:50:56;97880.03;;;15.02;50.55
32456;BME280;18912;43.270;27.942;2023-02-20T01:53:26;97872.84;;;14.84;50.89
32456;BME280;18912;43.270;27.942;2023-02-20T01:56:00;97878.84;;;15.38;49.85
32456;BME280;18912;43.270;27.942;2023-02-20T01:58:34;97877.47;;;14.72;51.16
32456;BME280;18912;43.270;27.942;2023-02-20T02:01:02;97881.78;;;14.57;51.42
32456;BME280;18912;43.270;27.942;2023-02-20T02:03:33;97899.41;;;15.17;50.14
32456;BME280;18912;43.270;27.942;2023-02-20T02:06:05;97897.59;;;14.83;51.03
32456;BME280;18912;43.270;27.942;2023-02-20T02:08:33;97911.44;;;14.81;51.09
32456;BME280;18912;43.270;27.942;2023-02-20T02:11:02;97917.09;;;14.68;51.48
32456;BME280;18912;43.270;27.942;2023-02-20T02:13:29;97913.19;;;14.76;51.30
32456;BME280;18912;43.270;27.942;2023-02-20T02:48:52;97924.22;;;14.35;52.55
32456;BME280;18912;43.270;27.942;2023-02-20T02:51:25;97934.50;;;14.56;52.03
32456;BME280;18912;43.270;27.942;2023-02-20T02:56:36;97945.16;;;14.80;51.60
32456;BME280;18912;43.270;27.942;2023-02-20T02:59:04;97949.75;;;14.68;51.78
32456;BME280;18912;43.270;27.942;2023-02-20T03:01:30;97964.53;;;14.72;51.80
32456;BME280;18912;43.270;27.942;2023-02-20T03:04:00;97952.38;;;14.86;51.36
32456;BME280;18912;43.270;27.942;2023-02-20T03:06:30;97949.88;;;14.62;51.77
32456;BME280;18912;43.270;27.942;2023-02-20T03:09:08;97959.84;;;14.68;51.91
32456;BME280;18912;43.270;27.942;2023-02-20T03:11:36;97963.13;;;14.47;52.02
32456;BME280;18912;43.270;27.942;2023-02-20T03:14:12;97983.59;;;14.72;51.73
32456;BME280;18912;43.270;27.942;2023-02-20T03:17:10;97988.63;;;14.34;52.56
32456;BME280;18912;43.270;27.942;2023-02-20T03:19:47;98006.19;;;14.61;52.33
32456;BME280;18912;43.270;27.942;2023-02-20T03:24:55;98018.84;;;14.67;52.25
32456;BME280;18912;43.270;27.942;2023-02-20T03:30:14;98041.81;;;14.83;52.33
32456;BME280;18912;43.270;27.942;2023-02-20T03:32:42;98067.25;;;15.00;52.15
32456;BME280;18912;43.270;27.942;2023-02-20T03:35:29;98066.31;;;14.30;54.91
32456;BME280;18912;43.270;27.942;2023-02-20T03:38:15;98059.38;;;14.16;55.15
32456;BME280;18912;43.270;27.942;2023-02-20T03:41:03;98079.97;;;13.94;54.69
32456;BME280;18912;43.270;27.942;2023-02-20T03:43:47;98063.47;;;13.59;55.06
32456;BME280;18912;43.270;27.942;2023-02-20T03:46:19;98059.94;;;14.06;53.89
32456;BME280;18912;43.270;27.942;2023-02-20T03:48:54;98087.66;;;13.97;53.57
32456;BME280;18912;43.270;27.942;2023-02-20T03:51:22;98096.00;;;14.32;52.50
32456;BME280;18912;43.270;27.942;2023-02-20T03:54:06;98099.00;;;14.24;52.13
32456;BME280;18912;43.270;27.942;2023-02-20T03:56:46;98112.72;;;13.99;51.91
32456;BME280;18912;43.270;27.942;2023-02-20T04:02:02;98120.31;;;14.56;49.86
32456;BME280;18912;43.270;27.942;2023-02-20T04:04:36;98129.06;;;14.29;49.83
32456;BME280;18912;43.270;27.942;2023-02-20T04:07:07;98130.34;;;14.26;49.78
32456;BME280;18912;43.270;27.942;2023-02-20T04:09:36;98122.41;;;14.43;49.12
32456;BME280;18912;43.270;27.942;2023-02-20T04:12:24;98126.19;;;14.53;47.87
32456;BME280;18912;43.270;27.942;2023-02-20T04:14:53;98134.91;;;14.32;47.47
32456;BME280;18912;43.270;27.942;2023-02-20T04:17:26;98130.34;;;14.26;46.94
32456;BME280;18912;43.270;27.942;2023-02-20T04:19:53;98130.59;;;14.54;46.34
32456;BME280;18912;43.270;27.942;2023-02-20T04:22:28;98136.59;;;14.45;46.28
32456;BME280;18912;43.270;27.942;2023-02-20T04:25:11;98143.13;;;14.07;46.53
32456;BME280;18912;43.270;27.942;2023-02-20T04:27:39;98159.50;;;14.37;46.16
32456;BME280;18912;43.270;27.942;2023-02-20T04:30:04;98171.09;;;14.44;45.99
32456;BME280;18912;43.270;27.942;2023-02-20T04:32:30;98177.38;;;14.45;45.80
32456;BME280;18912;43.270;27.942;2023-02-20T04:34:56;98183.50;;;14.22;46.14
32456;BME280;18912;43.270;27.942;2023-02-20T04:37:21;98179.66;;;14.12;46.15
32456;BME280;18912;43.270;27.942;2023-02-20T04:39:47;98199.69;;;13.99;46.75
32456;BME280;18912;43.270;27.942;2023-02-20T04:42:13;98193.31;;;13.87;47.01
32456;BME280;18912;43.270;27.942;2023-02-20T04:44:38;98193.41;;;13.98;46.84
32456;BME280;18912;43.270;27.942;2023-02-20T04:47:11;98190.19;;;13.90;47.08
32456;BME280;18912;43.270;27.942;2023-02-20T04:49:37;98198.00;;;13.80;47.21
32456;BME280;18912;43.270;27.942;2023-02-20T04:52:03;98189.59;;;13.45;48.17
32456;BME280;18912;43.270;27.942;2023-02-20T04:54:28;98196.63;;;13.28;48.29
32456;BME280;18912;43.270;27.942;2023-02-20T04:56:54;98198.44;;;13.59;48.08
32456;BME280;18912;43.270;27.942;2023-02-20T04:59:19;98200.16;;;13.53;48.35
32456;BME280;18912;43.270;27.942;2023-02-20T05:01:45;98201.34;;;13.39;48.80
32456;BME280;18912;43.270;27.942;2023-02-20T05:04:22;98205.63;;;13.29;48.77
32456;BME280;18912;43.270;27.942;2023-02-20T05:06:51;98214.22;;;13.50;48.29
32456;BME280;18912;43.270;27.942;2023-02-20T05:09:17;98219.06;;;13.42;48.87
32456;BME280;18912;43.270;27.942;2023-02-20T05:11:44;98235.97;;;13.68;48.31
32456;BME280;18912;43.270;27.942;2023-02-20T05:14:09;98217.19;;;13.67;47.85
32456;BME280;18912;43.270;27.942;2023-02-20T05:16:39;98238.81;;;13.73;47.79
32456;BME280;18912;43.270;27.942;2023-02-20T05:19:06;98246.16;;;13.73;47.51
32456;BME280;18912;43.270;27.942;2023-02-20T05:21:32;98246.09;;;13.55;48.02
32456;BME280;18912;43.270;27.942;2023-02-20T05:24:16;98247.75;;;13.80;47.62
32456;BME280;18912;43.270;27.942;2023-02-20T05:26:42;98250.91;;;13.77;47.67
32456;BME280;18912;43.270;27.942;2023-02-20T05:29:07;98261.97;;;13.58;47.75
32456;BME280;18912;43.270;27.942;2023-02-20T05:31:37;98264.72;;;13.76;47.47
32456;BME280;18912;43.270;27.942;2023-02-20T05:34:02;98270.03;;;13.64;47.54
32456;BME280;18912;43.270;27.942;2023-02-20T05:36:28;98284.44;;;13.71;47.39
32456;BME280;18912;43.270;27.942;2023-02-20T05:38:53;98287.66;;;13.62;47.44
32456;BME280;18912;43.270;27.942;2023-02-20T05:41:19;98294.00;;;13.74;47.17
32456;BME280;18912;43.270;27.942;2023-02-20T05:43:45;98289.53;;;13.61;47.17
32456;BME280;18912;43.270;27.942;2023-02-20T05:46:10;98289.28;;;13.38;47.84
32456;BME280;18912;43.270;27.942;2023-02-20T05:48:36;98312.03;;;13.13;48.27
32456;BME280;18912;43.270;27.942;2023-02-20T05:51:02;98316.78;;;12.79;48.61
32456;BME280;18912;43.270;27.942;2023-02-20T05:53:29;98315.44;;;12.95;48.38
32456;BME280;18912;43.270;27.942;2023-02-20T05:55:54;98315.16;;;12.65;48.81
32456;BME280;18912;43.270;27.942;2023-02-20T05:58:20;98319.16;;;12.56;48.94
32456;BME280;18912;43.270;27.942;2023-02-20T06:00:46;98330.06;;;12.43;49.16
32456;BME280;18912;43.270;27.942;2023-02-20T06:03:14;98334.53;;;12.75;48.81
32456;BME280;18912;43.270;27.942;2023-02-20T06:05:40;98340.19;;;12.67;48.90
32456;BME280;18912;43.270;27.942;2023-02-20T06:08:06;98350.16;;;12.80;48.41
32456;BME280;18912;43.270;27.942;2023-02-20T06:10:31;98369.66;;;13.01;48.12
32456;BME280;18912;43.270;27.942;2023-02-20T06:12:57;98391.25;;;12.83;48.24
32456;BME280;18912;43.270;27.942;2023-02-20T06:15:23;98399.75;;;13.06;47.67
32456;BME280;18912;43.270;27.942;2023-02-20T06:17:48;98393.41;;;12.68;48.43
32456;BME280;18912;43.270;27.942;2023-02-20T06:20:14;98400.13;;;12.46;48.71
32456;BME280;18912;43.270;27.942;2023-02-20T06:22:39;98407.84;;;12.49;48.59
32456;BME280;18912;43.270;27.942;2023-02-20T06:25:05;98413.22;;;12.56;48.92
32456;BME280;18912;43.270;27.942;2023-02-20T06:27:31;98418.94;;;12.35;49.08
32456;BME280;18912;43.270;27.942;2023-02-20T06:29:56;98412.25;;;12.37;49.24
32456;BME280;18912;43.270;27.942;2023-02-20T06:32:22;98413.09;;;12.38;49.23
32456;BME280;18912;43.270;27.942;2023-02-20T06:34:47;98421.84;;;12.40;49.30
32456;BME280;18912;43.270;27.942;2023-02-20T06:37:13;98413.09;;;12.38;49.28
32456;BME280;18912;43.270;27.942;2023-02-20T06:39:38;98419.69;;;12.61;49.08
32456;BME280;18912;43.270;27.942;2023-02-20T06:42:07;98425.59;;;12.26;50.01
32456;BME280;18912;43.270;27.942;2023-02-20T06:44:32;98432.06;;;12.31;50.13
32456;BME280;18912;43.270;27.942;2023-02-20T06:46:59;98433.09;;;12.30;50.05
32456;BME280;18912;43.270;27.942;2023-02-20T06:49:25;98435.78;;;12.37;49.63
32456;BME280;18912;43.270;27.942;2023-02-20T06:51:53;98447.66;;;12.68;49.04
32456;BME280;18912;43.270;27.942;2023-02-20T06:54:19;98449.13;;;12.45;49.56
32456;BME280;18912;43.270;27.942;2023-02-20T06:56:46;98450.81;;;12.19;50.00
32456;BME280;18912;43.270;27.942;2023-02-20T06:59:13;98453.97;;;12.23;50.02
32456;BME280;18912;43.270;27.942;2023-02-20T07:01:41;98459.16;;;12.31;49.97
32456;BME280;18912;43.270;27.942;2023-02-20T07:04:14;98456.66;;;11.97;50.79
32456;BME280;18912;43.270;27.942;2023-02-20T07:06:40;98456.25;;;11.74;51.26
32456;BME280;18912;43.270;27.942;2023-02-20T07:09:07;98444.56;;;11.80;51.27
32456;BME280;18912;43.270;27.942;2023-02-20T07:11:32;98451.88;;;12.12;50.52
32456;BME280;18912;43.270;27.942;2023-02-20T07:13:58;98455.63;;;12.11;50.52
32456;BME280;18912;43.270;27.942;2023-02-20T07:16:23;98459.81;;;12.00;50.62
32456;BME280;18912;43.270;27.942;2023-02-20T07:18:49;98465.84;;;12.09;50.54
32456;BME280;18912;43.270;27.942;2023-02-20T07:21:14;98448.72;;;11.69;51.61
32456;BME280;18912;43.270;27.942;2023-02-20T07:23:40;98464.59;;;12.05;51.08
32456;BME280;18912;43.270;27.942;2023-02-20T07:26:06;98463.75;;;12.24;50.84
32456;BME280;18912;43.270;27.942;2023-02-20T07:28:33;98471.69;;;12.12;50.99
32456;BME280;18912;43.270;27.942;2023-02-20T07:31:00;98459.59;;;11.89;51.63
32456;BME280;18912;43.270;27.942;2023-02-20T07:33:26;98474.81;;;12.09;51.14
32456;BME280;18912;43.270;27.942;2023-02-20T07:35:52;98482.53;;;12.12;50.84
32456;BME280;18912;43.270;27.942;2023-02-20T07:38:17;98484.59;;;12.37;50.06
32456;BME280;18912;43.270;27.942;2023-02-20T07:40:43;98482.91;;;11.90;50.86
32456;BME280;18912;43.270;27.942;2023-02-20T07:43:08;98491.69;;;11.98;50.76
32456;BME280;18912;43.270;27.942;2023-02-20T07:45:34;98494.41;;;12.11;50.65
32456;BME280;18912;43.270;27.942;2023-02-20T07:47:59;98496.72;;;12.08;50.81
32456;BME280;18912;43.270;27.942;2023-02-20T07:50:25;98510.81;;;11.84;52.31
32456;BME280;18912;43.270;27.942;2023-02-20T07:52:50;98509.38;;;11.88;52.88
32456;BME280;18912;43.270;27.942;2023-02-20T07:55:16;98517.31;;;12.02;52.68
32456;BME280;18912;43.270;27.942;2023-02-20T07:57:45;98520.41;;;11.93;52.27
32456;BME280;18912;43.270;27.942;2023-02-20T08:00:16;98521.28;;;11.87;52.41
32456;BME280;18912;43.270;27.942;2023-02-20T08:02:42;98531.50;;;11.98;52.04
32456;BME280;18912;43.270;27.942;2023-02-20T08:05:08;98533.41;;;12.17;51.68
32456;BME280;18912;43.270;27.942;2023-02-20T08:07:34;98524.56;;;11.76;52.99
32456;BME280;18912;43.270;27.942;2023-02-20T08:10:00;98547.75;;;11.38;53.83
32456;BME280;18912;43.270;27.942;2023-02-20T08:12:25;98552.09;;;11.39;53.79
32456;BME280;18912;43.270;27.942;2023-02-20T08:14:51;98556.13;;;11.08;54.46
32456;BME280;18912;43.270;27.942;2023-02-20T08:17:17;98562.44;;;11.22;54.74
32456;BME280;18912;43.270;27.942;2023-02-20T08:19:43;98567.78;;;11.50;53.67
32456;BME280;18912;43.270;27.942;2023-02-20T08:22:09;98558.59;;;11.44;53.74
32456;BME280;18912;43.270;27.942;2023-02-20T08:24:34;98570.63;;;11.42;53.50
32456;BME280;18912;43.270;27.942;2023-02-20T08:27:00;98574.97;;;11.29;53.63
32456;BME280;18912;43.270;27.942;2023-02-20T08:29:25;98577.91;;;11.00;54.21
32456;BME280;18912;43.270;27.942;2023-02-20T08:31:51;98575.13;;;10.87;54.79
32456;BME280;18912;43.270;27.942;2023-02-20T08:34:16;98575.03;;;10.74;55.15
32456;BME280;18912;43.270;27.942;2023-02-20T08:36:42;98587.69;;;10.67;55.41
32456;BME280;18912;43.270;27.942;2023-02-20T08:39:08;98580.09;;;10.84;55.15
32456;BME280;18912;43.270;27.942;2023-02-20T08:41:33;98582.22;;;10.61;56.35
32456;BME280;18912;43.270;27.942;2023-02-20T08:43:59;98578.38;;;10.49;56.38
32456;BME280;18912;43.270;27.942;2023-02-20T08:46:24;98584.78;;;10.20;57.35
32456;BME280;18912;43.270;27.942;2023-02-20T08:48:50;98584.16;;;10.18;57.81
32456;BME280;18912;43.270;27.942;2023-02-20T08:51:19;98585.72;;;9.91;59.12
32456;BME280;18912;43.270;27.942;2023-02-20T08:53:45;98599.78;;;9.87;59.64
32456;BME280;18912;43.270;27.942;2023-02-20T08:56:10;98607.22;;;10.20;58.60
32456;BME280;18912;43.270;27.942;2023-02-20T08:58:37;98612.84;;;10.04;59.82
32456;BME280;18912;43.270;27.942;2023-02-20T09:01:03;98611.97;;;10.18;59.84
32456;BME280;18912;43.270;27.942;2023-02-20T09:03:29;98615.78;;;9.88;60.64
32456;BME280;18912;43.270;27.942;2023-02-20T09:05:55;98616.44;;;9.90;60.84
32456;BME280;18912;43.270;27.942;2023-02-20T09:08:20;98611.47;;;9.94;61.43
32456;BME280;18912;43.270;27.942;2023-02-20T09:10:46;98613.41;;;10.00;60.82
32456;BME280;18912;43.270;27.942;2023-02-20T09:13:11;98613.72;;;9.55;62.37
32456;BME280;18912;43.270;27.942;2023-02-20T09:15:37;98623.75;;;10.11;61.34
32456;BME280;18912;43.270;27.942;2023-02-20T09:18:07;98627.97;;;9.99;61.40
32456;BME280;18912;43.270;27.942;2023-02-20T09:20:35;98623.47;;;10.06;61.55
32456;BME280;18912;43.270;27.942;2023-02-20T09:23:05;98629.22;;;10.39;60.57
32456;BME280;18912;43.270;27.942;2023-02-20T09:25:31;98628.38;;;10.17;61.65
32456;BME280;18912;43.270;27.942;2023-02-20T09:27:56;98642.53;;;10.61;60.48
32456;BME280;18912;43.270;27.942;2023-02-20T09:30:22;98632.81;;;10.94;59.62
32456;BME280;18912;43.270;27.942;2023-02-20T09:32:48;98632.94;;;10.59;59.77
32456;BME280;18912;43.270;27.942;2023-02-20T09:35:26;98644.47;;;10.46;60.66
32456;BME280;18912;43.270;27.942;2023-02-20T09:37:52;98636.50;;;10.38;60.94
32456;BME280;18912;43.270;27.942;2023-02-20T09:40:25;98641.78;;;10.46;60.49
32456;BME280;18912;43.270;27.942;2023-02-20T09:46:01;98631.91;;;10.81;59.56
32456;BME280;18912;43.270;27.942;2023-02-20T09:48:33;98631.53;;;10.90;59.33
32456;BME280;18912;43.270;27.942;2023-02-20T09:51:05;98634.53;;;11.02;59.37
32456;BME280;18912;43.270;27.942;2023-02-20T09:53:49;98635.34;;;10.96;58.92
32456;BME280;18912;43.270;27.942;2023-02-20T09:56:19;98631.59;;;10.97;59.15
32456;BME280;18912;43.270;27.942;2023-02-20T09:59:05;98632.59;;;11.23;58.47
32456;BME280;18912;43.270;27.942;2023-02-20T10:01:33;98630.13;;;11.28;57.70
32456;BME280;18912;43.270;27.942;2023-02-20T10:04:10;98635.59;;;11.07;56.72
32456;BME280;18912;43.270;27.942;2023-02-20T10:06:37;98633.66;;;11.29;56.64
32456;BME280;18912;43.270;27.942;2023-02-20T10:09:05;98642.44;;;11.65;55.15
32456;BME280;18912;43.270;27.942;2023-02-20T10:19:49;98634.31;;;12.19;52.51
32456;BME280;18912;43.270;27.942;2023-02-20T10:27:53;98647.28;;;12.43;50.85
32456;BME280;18912;43.270;27.942;2023-02-20T10:30:30;98657.53;;;12.74;50.42
32456;BME280;18912;43.270;27.942;2023-02-20T10:33:24;98646.66;;;12.67;50.33
32456;BME280;18912;43.270;27.942;2023-02-20T10:36:01;98643.31;;;12.46;50.86
32456;BME280;18912;43.270;27.942;2023-02-20T10:39:08;98631.44;;;12.47;50.32
32456;BME280;18912;43.270;27.942;2023-02-20T10:42:14;98632.22;;;12.21;50.66
32456;BME280;18912;43.270;27.942;2023-02-20T10:53:36;98633.03;;;12.15;49.73
32456;BME280;18912;43.270;27.942;2023-02-20T10:59:00;98618.50;;;12.75;48.84
32456;BME280;18912;43.270;27.942;2023-02-20T11:01:27;98619.31;;;12.43;48.31
32456;BME280;18912;43.270;27.942;2023-02-20T11:09:48;98629.38;;;12.55;47.69
32456;BME280;18912;43.270;27.942;2023-02-20T11:12:23;98635.63;;;12.75;47.21
32456;BME280;18912;43.270;27.942;2023-02-20T11:14:51;98634.38;;;12.78;46.35
32456;BME280;18912;43.270;27.942;2023-02-20T11:17:20;98632.50;;;12.91;46.48
32456;BME280;18912;43.270;27.942;2023-02-20T11:19:48;98628.31;;;12.89;46.01
32456;BME280;18912;43.270;27.942;2023-02-20T11:22:16;98627.91;;;12.59;46.16
32456;BME280;18912;43.270;27.942;2023-02-20T11:24:43;98622.06;;;12.62;45.57
32456;BME280;18912;43.270;27.942;2023-02-20T11:27:18;98621.22;;;13.07;43.99
32456;BME280;18912;43.270;27.942;2023-02-20T11:32:37;98625.13;;;13.38;43.91
32456;BME280;18912;43.270;27.942;2023-02-20T11:37:35;98629.59;;;13.13;43.09
32456;BME280;18912;43.270;27.942;2023-02-20T11:40:02;98623.66;;;13.48;43.23
32456;BME280;18912;43.270;27.942;2023-02-20T11:42:47;98630.31;;;13.59;43.71
32456;BME280;18912;43.270;27.942;2023-02-20T11:45:26;98630.88;;;13.74;42.86
32456;BME280;18912;43.270;27.942;2023-02-20T11:53:25;98636.25;;;13.87;41.67
32456;BME280;18912;43.270;27.942;2023-02-20T11:56:15;98639.97;;;13.99;42.58
32456;BME280;18912;43.270;27.942;2023-02-20T11:58:42;98640.34;;;14.09;41.74
32456;BME280;18912;43.270;27.942;2023-02-20T12:03:54;98644.28;;;13.69;43.27
32456;BME280;18912;43.270;27.942;2023-02-20T12:08:59;98642.00;;;14.17;42.65
32456;BME280;18912;43.270;27.942;2023-02-20T12:11:26;98648.00;;;14.32;41.99
32456;BME280;18912;43.270;27.942;2023-02-20T12:13:56;98657.13;;;14.44;40.45
32456;BME280;18912;43.270;27.942;2023-02-20T12:33:13;98642.09;;;14.41;40.62
32456;BME280;18912;43.270;27.942;2023-02-20T12:36:09;98648.94;;;14.50;40.82
32456;BME280;18912;43.270;27.942;2023-02-20T12:41:58;98653.72;;;14.11;39.61
32456;BME280;18912;43.270;27.942;2023-02-20T12:46:36;98666.31;;;13.22;40.40
32456;BME280;18912;43.270;27.942;2023-02-20T12:49:46;98662.50;;;14.13;40.15
32456;BME280;18912;43.270;27.942;2023-02-20T12:52:23;98670.22;;;14.60;39.28
32456;BME280;18912;43.270;27.942;2023-02-20T12:54:46;98657.25;;;14.86;37.54
32456;BME280;18912;43.270;27.942;2023-02-20T12:57:17;98657.09;;;14.81;38.62
32456;BME280;18912;43.270;27.942;2023-02-20T12:59:57;98665.88;;;14.46;39.16
32456;BME280;18912;43.270;27.942;2023-02-20T13:02:32;98666.19;;;14.31;39.73
32456;BME280;18912;43.270;27.942;2023-02-20T13:05:00;98660.47;;;13.95;39.89
32456;BME280;18912;43.270;27.942;2023-02-20T13:07:32;98670.25;;;13.32;41.85
32456;BME280;18912;43.270;27.942;2023-02-20T13:10:02;98663.25;;;12.12;44.29
32456;BME280;18912;43.270;27.942;2023-02-20T13:12:29;98667.97;;;11.90;45.15
32456;BME280;18912;43.270;27.942;2023-02-20T13:17:41;98667.50;;;11.74;45.46
32456;BME280;18912;43.270;27.942;2023-02-20T13:20:17;98662.00;;;11.33;46.42
32456;BME280;18912;43.270;27.942;2023-02-20T13:23:39;98652.25;;;11.39;45.98
32456;BME280;18912;43.270;27.942;2023-02-20T13:25:46;98652.41;;;11.65;45.79
32456;BME280;18912;43.270;27.942;2023-02-20T13:30:38;98636.22;;;11.37;46.35
32456;BME280;18912;43.270;27.942;2023-02-20T13:33:29;98654.53;;;11.07;45.99
32456;BME280;18912;43.270;27.942;2023-02-20T13:35:56;98653.88;;;10.50;47.14
32456;BME280;18912;43.270;27.942;2023-02-20T13:38:24;98653.06;;;11.32;46.33
32456;BME280;18912;43.270;27.942;2023-02-20T13:46:08;98642.13;;;10.64;47.28
32456;BME280;18912;43.270;27.942;2023-02-20T13:53:53;98647.97;;;10.68;47.26
32456;BME280;18912;43.270;27.942;2023-02-20T13:56:26;98642.34;;;10.42;47.30
32456;BME280;18912;43.270;27.942;2023-02-20T13:58:57;98633.13;;;10.78;47.21
32456;BME280;18912;43.270;27.942;2023-02-20T14:01:24;98625.59;;;11.01;46.69
32456;BME280;18912;43.270;27.942;2023-02-20T14:03:59;98628.59;;;11.13;46.10
32456;BME280;18912;43.270;27.942;2023-02-20T14:06:26;98610.19;;;11.02;46.23
32456;BME280;18912;43.270;27.942;2023-02-20T14:09:09;98617.94;;;10.56;47.13
32456;BME280;18912;43.270;27.942;2023-02-20T14:11:37;98618.78;;;11.12;46.29
32456;BME280;18912;43.270;27.942;2023-02-20T14:14:18;98631.75;;;11.23;45.72
32456;BME280;18912;43.270;27.942;2023-02-20T14:16:47;98632.63;;;10.96;45.80
32456;BME280;18912;43.270;27.942;2023-02-20T14:21:44;98628.19;;;11.91;44.22
32456;BME280;18912;43.270;27.942;2023-02-20T14:24:23;98635.44;;;11.84;43.49
32456;BME280;18912;43.270;27.942;2023-02-20T14:26:50;98626.09;;;11.52;44.50
32456;BME280;18912;43.270;27.942;2023-02-20T14:29:30;98627.59;;;11.61;43.88
32456;BME280;18912;43.270;27.942;2023-02-20T14:31:58;98629.75;;;11.38;44.44
32456;BME280;18912;43.270;27.942;2023-02-20T14:34:51;98638.38;;;11.14;44.73
32456;BME280;18912;43.270;27.942;2023-02-20T14:40:05;98623.63;;;11.57;44.14
32456;BME280;18912;43.270;27.942;2023-02-20T14:42:38;98627.31;;;11.09;45.06
32456;BME280;18912;43.270;27.942;2023-02-20T14:45:13;98623.81;;;11.49;44.42
32456;BME280;18912;43.270;27.942;2023-02-20T14:47:59;98627.25;;;11.71;43.57
32456;BME280;18912;43.270;27.942;2023-02-20T14:50:28;98628.34;;;11.83;43.27
32456;BME280;18912;43.270;27.942;2023-02-20T14:55:38;98626.53;;;11.56;43.67
32456;BME280;18912;43.270;27.942;2023-02-20T14:58:14;98625.81;;;11.41;43.60
32456;BME280;18912;43.270;27.942;2023-02-20T15:00:41;98620.28;;;11.55;43.70
32456;BME280;18912;43.270;27.942;2023-02-20T15:03:10;98614.38;;;11.39;43.94
32456;BME280;18912;43.270;27.942;2023-02-20T15:05:42;98621.47;;;11.46;43.79
32456;BME280;18912;43.270;27.942;2023-02-20T15:10:48;98616.50;;;11.50;43.66
32456;BME280;18912;43.270;27.942;2023-02-20T15:13:21;98617.38;;;11.57;43.00
32456;BME280;18912;43.270;27.942;2023-02-20T15:15:49;98621.47;;;11.40;43.36
32456;BME280;18912;43.270;27.942;2023-02-20T15:18:32;98613.06;;;10.94;44.62
32456;BME280;18912;43.270;27.942;2023-02-20T15:20:58;98619.91;;;10.96;44.63
32456;BME280;18912;43.270;27.942;2023-02-20T15:23:27;98607.72;;;11.07;44.73
32456;BME280;18912;43.270;27.942;2023-02-20T15:25:52;98611.97;;;10.88;44.83